KMCB/MCB METAR and TAF weather

Enter ICAO airport designator
Station Type Date Time Source
KMCB METAR 2020/03/31 07:53 UTC NOAA

KMCB 310753Z AUTO 19012KT 10SM OVC010 23/21 A2981 RMK AO2 SLP089 T02280206


Station Type Date Time Source
KMCB Decoded METAR 2020/03/31 07:53 UTC NOAA

MCCOMB/PIKE COUNTY AIRPORT, MS, United States (KMCB) 31-11N 90-28W 124M
Mar 31, 2020 - 03:53 AM EDT / 2020.03.31 0753 UTC
Wind: from the S (190 degrees) at 14 MPH (12 KT):0
Visibility: 10 mile(s):0
Sky conditions: overcast
Temperature: 73.0 F (22.8 C)
Dew Point: 69.1 F (20.6 C)
Relative Humidity: 87%
Pressure (altimeter): 29.81 in. Hg (1009 hPa)
ob: KMCB 310753Z AUTO 19012KT 10SM OVC010 23/21 A2981 RMK AO2 SLP089 T02280206
cycle: 8

Station Type Date Time Source
KMCB TAF 2020/03/31 06:30 UTC NOAA

TAF
AMD KMCB 310629Z 3106/0106 16004KT P6SM BKN015 OVC060
FM310900 18006KT P6SM -SHRA VCTS SCT020CB OVC025
FM311600 28011KT P6SM SCT015 OVC070
FM311800 31013G20KT P6SM OVC015
FM312000 34014G21KT P6SM BKN050

Example: see airport list